sensor_id;sensor_type;location;lat;lon;timestamp;temperature;humidity
8095;DHT22;4090;49.270;8.696;2023-06-26T00:00:42;27.00;81.60
8095;DHT22;4090;49.270;8.696;2023-06-26T00:03:24;26.90;81.70
8095;DHT22;4090;49.270;8.696;2023-06-26T00:06:06;26.90;82.40
8095;DHT22;4090;49.270;8.696;2023-06-26T00:08:49;26.90;81.80
8095;DHT22;4090;49.270;8.696;2023-06-26T00:11:31;26.80;81.60
8095;DHT22;4090;49.270;8.696;2023-06-26T00:14:13;26.80;81.50
8095;DHT22;4090;49.270;8.696;2023-06-26T00:16:55;26.80;82.20
8095;DHT22;4090;49.270;8.696;2023-06-26T00:19:37;26.80;82.00
8095;DHT22;4090;49.270;8.696;2023-06-26T00:22:20;26.80;81.90
8095;DHT22;4090;49.270;8.696;2023-06-26T00:25:04;26.70;81.50
8095;DHT22;4090;49.270;8.696;2023-06-26T00:27:46;26.70;81.20
8095;DHT22;4090;49.270;8.696;2023-06-26T00:30:27;26.70;81.30
8095;DHT22;4090;49.270;8.696;2023-06-26T00:33:11;26.70;81.60
8095;DHT22;4090;49.270;8.696;2023-06-26T00:35:53;26.70;81.70
8095;DHT22;4090;49.270;8.696;2023-06-26T00:38:35;26.60;82.00
8095;DHT22;4090;49.270;8.696;2023-06-26T00:41:21;26.60;82.90
8095;DHT22;4090;49.270;8.696;2023-06-26T00:44:05;26.60;82.30
8095;DHT22;4090;49.270;8.696;2023-06-26T00:46:47;26.50;82.20
8095;DHT22;4090;49.270;8.696;2023-06-26T00:49:30;26.50;82.40
8095;DHT22;4090;49.270;8.696;2023-06-26T00:52:12;26.50;83.70
8095;DHT22;4090;49.270;8.696;2023-06-26T00:54:55;26.50;82.70
8095;DHT22;4090;49.270;8.696;2023-06-26T00:57:38;26.50;83.20
8095;DHT22;4090;49.270;8.696;2023-06-26T01:00:20;26.40;83.00
8095;DHT22;4090;49.270;8.696;2023-06-26T01:03:02;26.40;83.60
8095;DHT22;4090;49.270;8.696;2023-06-26T01:05:44;26.30;83.80
8095;DHT22;4090;49.270;8.696;2023-06-26T01:08:32;26.30;83.50
8095;DHT22;4090;49.270;8.696;2023-06-26T01:11:14;26.30;84.00
8095;DHT22;4090;49.270;8.696;2023-06-26T01:14:00;26.30;83.70
8095;DHT22;4090;49.270;8.696;2023-06-26T01:16:43;26.20;83.50
8095;DHT22;4090;49.270;8.696;2023-06-26T01:19:29;26.20;84.40
8095;DHT22;4090;49.270;8.696;2023-06-26T01:22:18;26.10;84.60
8095;DHT22;4090;49.270;8.696;2023-06-26T01:25:08;26.10;84.50
8095;DHT22;4090;49.270;8.696;2023-06-26T01:27:55;26.10;84.80
8095;DHT22;4090;49.270;8.696;2023-06-26T01:30:41;26.10;85.20
8095;DHT22;4090;49.270;8.696;2023-06-26T01:33:23;26.10;84.80
8095;DHT22;4090;49.270;8.696;2023-06-26T01:36:07;26.00;85.20
8095;DHT22;4090;49.270;8.696;2023-06-26T01:38:50;26.00;83.90
8095;DHT22;4090;49.270;8.696;2023-06-26T01:41:32;26.00;84.30
8095;DHT22;4090;49.270;8.696;2023-06-26T01:44:23;26.00;84.90
8095;DHT22;4090;49.270;8.696;2023-06-26T01:47:06;26.00;85.40
8095;DHT22;4090;49.270;8.696;2023-06-26T01:49:54;26.00;85.40
8095;DHT22;4090;49.270;8.696;2023-06-26T01:52:41;25.90;85.80
8095;DHT22;4090;49.270;8.696;2023-06-26T01:55:31;25.90;86.50
8095;DHT22;4090;49.270;8.696;2023-06-26T01:58:17;25.90;86.20
8095;DHT22;4090;49.270;8.696;2023-06-26T02:01:02;25.80;86.30
8095;DHT22;4090;49.270;8.696;2023-06-26T02:03:47;25.80;86.20
8095;DHT22;4090;49.270;8.696;2023-06-26T02:06:29;25.70;86.20
8095;DHT22;4090;49.270;8.696;2023-06-26T02:09:10;25.70;86.20
8095;DHT22;4090;49.270;8.696;2023-06-26T02:11:52;25.70;86.90
8095;DHT22;4090;49.270;8.696;2023-06-26T02:14:34;25.70;87.40
8095;DHT22;4090;49.270;8.696;2023-06-26T02:17:17;25.70;86.60
8095;DHT22;4090;49.270;8.696;2023-06-26T02:20:00;25.60;87.40
8095;DHT22;4090;49.270;8.696;2023-06-26T02:22:44;25.60;87.50
8095;DHT22;4090;49.270;8.696;2023-06-26T02:25:26;25.60;88.40
8095;DHT22;4090;49.270;8.696;2023-06-26T02:28:08;25.50;88.30
8095;DHT22;4090;49.270;8.696;2023-06-26T02:30:50;25.50;87.50
8095;DHT22;4090;49.270;8.696;2023-06-26T02:33:33;25.40;88.30
8095;DHT22;4090;49.270;8.696;2023-06-26T02:36:15;25.40;88.10
8095;DHT22;4090;49.270;8.696;2023-06-26T02:38:57;25.30;88.70
8095;DHT22;4090;49.270;8.696;2023-06-26T02:41:39;25.30;89.50
8095;DHT22;4090;49.270;8.696;2023-06-26T02:44:21;25.30;89.50
8095;DHT22;4090;49.270;8.696;2023-06-26T02:47:04;25.30;89.40
8095;DHT22;4090;49.270;8.696;2023-06-26T02:49:48;25.30;89.50
8095;DHT22;4090;49.270;8.696;2023-06-26T02:52:30;25.20;89.50
8095;DHT22;4090;49.270;8.696;2023-06-26T02:55:12;25.20;89.70
8095;DHT22;4090;49.270;8.696;2023-06-26T02:57:54;25.10;89.10
8095;DHT22;4090;49.270;8.696;2023-06-26T03:00:37;25.10;89.40
8095;DHT22;4090;49.270;8.696;2023-06-26T03:03:21;25.10;89.30
8095;DHT22;4090;49.270;8.696;2023-06-26T03:06:05;25.10;89.40
8095;DHT22;4090;49.270;8.696;2023-06-26T03:08:46;25.00;89.90
8095;DHT22;4090;49.270;8.696;2023-06-26T03:11:30;24.90;89.70
8095;DHT22;4090;49.270;8.696;2023-06-26T03:14:16;24.90;90.10
8095;DHT22;4090;49.270;8.696;2023-06-26T03:16:57;24.90;90.00
8095;DHT22;4090;49.270;8.696;2023-06-26T03:19:43;24.80;90.10
8095;DHT22;4090;49.270;8.696;2023-06-26T03:22:34;24.90;90.50
8095;DHT22;4090;49.270;8.696;2023-06-26T03:25:16;24.80;90.60
8095;DHT22;4090;49.270;8.696;2023-06-26T03:27:58;24.80;90.50
8095;DHT22;4090;49.270;8.696;2023-06-26T03:30:40;24.70;90.70
8095;DHT22;4090;49.270;8.696;2023-06-26T03:33:22;24.70;90.80
8095;DHT22;4090;49.270;8.696;2023-06-26T03:36:05;24.60;90.80
8095;DHT22;4090;49.270;8.696;2023-06-26T03:38:49;24.60;91.00
8095;DHT22;4090;49.270;8.696;2023-06-26T03:41:31;24.60;91.00
8095;DHT22;4090;49.270;8.696;2023-06-26T03:44:13;24.50;91.30
8095;DHT22;4090;49.270;8.696;2023-06-26T03:47:01;24.50;91.30
8095;DHT22;4090;49.270;8.696;2023-06-26T03:49:43;24.50;91.70
8095;DHT22;4090;49.270;8.696;2023-06-26T03:52:25;24.50;91.60
8095;DHT22;4090;49.270;8.696;2023-06-26T03:55:08;24.50;91.40
8095;DHT22;4090;49.270;8.696;2023-06-26T03:57:51;24.40;91.60
8095;DHT22;4090;49.270;8.696;2023-06-26T04:00:33;24.40;91.70
8095;DHT22;4090;49.270;8.696;2023-06-26T04:03:15;24.40;91.60
8095;DHT22;4090;49.270;8.696;2023-06-26T04:05:56;24.30;91.70
8095;DHT22;4090;49.270;8.696;2023-06-26T04:08:38;24.30;92.30
8095;DHT22;4090;49.270;8.696;2023-06-26T04:11:22;24.20;91.80
8095;DHT22;4090;49.270;8.696;2023-06-26T04:14:04;24.20;92.00
8095;DHT22;4090;49.270;8.696;2023-06-26T04:16:46;24.20;92.10
8095;DHT22;4090;49.270;8.696;2023-06-26T04:19:28;24.20;92.10
8095;DHT22;4090;49.270;8.696;2023-06-26T04:22:10;24.20;92.10
8095;DHT22;4090;49.270;8.696;2023-06-26T04:24:52;24.10;92.10
8095;DHT22;4090;49.270;8.696;2023-06-26T04:27:35;24.10;92.30
8095;DHT22;4090;49.270;8.696;2023-06-26T04:30:17;24.20;92.20
8095;DHT22;4090;49.270;8.696;2023-06-26T04:32:59;24.20;92.30
8095;DHT22;4090;49.270;8.696;2023-06-26T04:35:41;24.20;92.30
8095;DHT22;4090;49.270;8.696;2023-06-26T04:38:25;24.10;92.30
8095;DHT22;4090;49.270;8.696;2023-06-26T04:41:07;24.20;92.50
8095;DHT22;4090;49.270;8.696;2023-06-26T04:43:50;24.10;92.50
8095;DHT22;4090;49.270;8.696;2023-06-26T04:46:32;24.10;92.50
8095;DHT22;4090;49.270;8.696;2023-06-26T04:49:14;24.10;92.50
8095;DHT22;4090;49.270;8.696;2023-06-26T04:51:58;24.20;92.60
8095;DHT22;4090;49.270;8.696;2023-06-26T04:54:40;24.20;92.70
8095;DHT22;4090;49.270;8.696;2023-06-26T04:57:22;24.10;92.70
8095;DHT22;4090;49.270;8.696;2023-06-26T05:00:06;24.20;92.70
8095;DHT22;4090;49.270;8.696;2023-06-26T05:02:51;24.20;92.80
8095;DHT22;4090;49.270;8.696;2023-06-26T05:05:41;24.20;92.70
8095;DHT22;4090;49.270;8.696;2023-06-26T05:08:24;24.20;92.90
8095;DHT22;4090;49.270;8.696;2023-06-26T05:11:06;24.20;92.90
8095;DHT22;4090;49.270;8.696;2023-06-26T05:13:48;24.20;93.10
8095;DHT22;4090;49.270;8.696;2023-06-26T05:16:32;24.20;93.30
8095;DHT22;4090;49.270;8.696;2023-06-26T05:19:13;24.20;93.40
8095;DHT22;4090;49.270;8.696;2023-06-26T05:21:55;24.20;93.30
8095;DHT22;4090;49.270;8.696;2023-06-26T05:24:39;24.20;93.50
8095;DHT22;4090;49.270;8.696;2023-06-26T05:27:21;24.20;93.40
8095;DHT22;4090;49.270;8.696;2023-06-26T05:30:04;24.20;93.70
8095;DHT22;4090;49.270;8.696;2023-06-26T05:32:48;24.20;93.60
8095;DHT22;4090;49.270;8.696;2023-06-26T05:35:31;24.20;93.70
8095;DHT22;4090;49.270;8.696;2023-06-26T05:38:13;24.20;93.90
8095;DHT22;4090;49.270;8.696;2023-06-26T05:40:56;24.20;94.40
8095;DHT22;4090;49.270;8.696;2023-06-26T05:43:38;24.30;94.00
8095;DHT22;4090;49.270;8.696;2023-06-26T05:46:20;24.30;93.90
8095;DHT22;4090;49.270;8.696;2023-06-26T05:49:03;24.30;94.30
8095;DHT22;4090;49.270;8.696;2023-06-26T05:51:45;24.20;93.90
8095;DHT22;4090;49.270;8.696;2023-06-26T05:54:28;24.20;93.90
8095;DHT22;4090;49.270;8.696;2023-06-26T05:57:12;24.10;93.80
8095;DHT22;4090;49.270;8.696;2023-06-26T05:59:55;24.10;93.60
8095;DHT22;4090;49.270;8.696;2023-06-26T06:02:37;24.20;92.80
8095;DHT22;4090;49.270;8.696;2023-06-26T06:05:20;24.20;92.80
8095;DHT22;4090;49.270;8.696;2023-06-26T06:08:06;24.20;92.10
8095;DHT22;4090;49.270;8.696;2023-06-26T06:10:50;24.20;92.70
8095;DHT22;4090;49.270;8.696;2023-06-26T06:13:32;24.30;92.80
8095;DHT22;4090;49.270;8.696;2023-06-26T06:16:13;24.30;92.60
8095;DHT22;4090;49.270;8.696;2023-06-26T06:18:56;24.30;92.40
8095;DHT22;4090;49.270;8.696;2023-06-26T06:21:39;24.30;92.30
8095;DHT22;4090;49.270;8.696;2023-06-26T06:24:22;24.40;92.50
8095;DHT22;4090;49.270;8.696;2023-06-26T06:27:04;24.40;92.40
8095;DHT22;4090;49.270;8.696;2023-06-26T06:29:46;24.40;92.70
8095;DHT22;4090;49.270;8.696;2023-06-26T06:32:28;24.40;92.40
8095;DHT22;4090;49.270;8.696;2023-06-26T06:35:10;24.40;92.50
8095;DHT22;4090;49.270;8.696;2023-06-26T06:37:53;24.40;92.40
8095;DHT22;4090;49.270;8.696;2023-06-26T06:40:35;24.40;92.50
8095;DHT22;4090;49.270;8.696;2023-06-26T06:43:16;24.40;92.70
8095;DHT22;4090;49.270;8.696;2023-06-26T06:45:58;24.50;92.90
8095;DHT22;4090;49.270;8.696;2023-06-26T06:48:40;24.40;92.90
8095;DHT22;4090;49.270;8.696;2023-06-26T06:51:22;24.50;92.70
8095;DHT22;4090;49.270;8.696;2023-06-26T06:54:05;24.50;92.50
8095;DHT22;4090;49.270;8.696;2023-06-26T06:56:47;24.50;92.50
8095;DHT22;4090;49.270;8.696;2023-06-26T06:59:29;24.50;92.80
8095;DHT22;4090;49.270;8.696;2023-06-26T07:02:11;24.50;93.10
8095;DHT22;4090;49.270;8.696;2023-06-26T07:04:53;24.50;93.10
8095;DHT22;4090;49.270;8.696;2023-06-26T07:07:36;24.60;93.00
8095;DHT22;4090;49.270;8.696;2023-06-26T07:10:19;24.60;92.60
8095;DHT22;4090;49.270;8.696;2023-06-26T07:13:01;24.60;92.60
8095;DHT22;4090;49.270;8.696;2023-06-26T07:15:43;24.60;92.90
8095;DHT22;4090;49.270;8.696;2023-06-26T07:18:28;24.60;92.90
8095;DHT22;4090;49.270;8.696;2023-06-26T07:21:10;24.70;92.90
8095;DHT22;4090;49.270;8.696;2023-06-26T07:23:52;24.80;92.40
8095;DHT22;4090;49.270;8.696;2023-06-26T07:26:35;24.80;92.70
8095;DHT22;4090;49.270;8.696;2023-06-26T07:29:17;24.80;92.80
8095;DHT22;4090;49.270;8.696;2023-06-26T07:31:59;24.80;92.90
8095;DHT22;4090;49.270;8.696;2023-06-26T07:34:41;24.80;92.70
8095;DHT22;4090;49.270;8.696;2023-06-26T07:37:22;24.80;92.70
8095;DHT22;4090;49.270;8.696;2023-06-26T07:40:05;24.90;93.30
8095;DHT22;4090;49.270;8.696;2023-06-26T07:42:48;25.00;92.90
8095;DHT22;4090;49.270;8.696;2023-06-26T07:45:30;24.90;92.20
8095;DHT22;4090;49.270;8.696;2023-06-26T07:48:12;25.00;91.80
8095;DHT22;4090;49.270;8.696;2023-06-26T07:50:54;25.20;91.20
8095;DHT22;4090;49.270;8.696;2023-06-26T07:53:36;25.20;91.10
8095;DHT22;4090;49.270;8.696;2023-06-26T07:56:18;25.30;91.00
8095;DHT22;4090;49.270;8.696;2023-06-26T07:59:01;25.30;91.10
8095;DHT22;4090;49.270;8.696;2023-06-26T08:01:44;25.30;91.30
8095;DHT22;4090;49.270;8.696;2023-06-26T08:04:28;25.40;91.00
8095;DHT22;4090;49.270;8.696;2023-06-26T08:07:10;25.40;90.70
8095;DHT22;4090;49.270;8.696;2023-06-26T08:09:52;25.40;91.10
8095;DHT22;4090;49.270;8.696;2023-06-26T08:12:34;25.50;90.70
8095;DHT22;4090;49.270;8.696;2023-06-26T08:15:18;25.60;90.60
8095;DHT22;4090;49.270;8.696;2023-06-26T08:18:00;25.70;90.50
8095;DHT22;4090;49.270;8.696;2023-06-26T08:20:42;25.70;90.30
8095;DHT22;4090;49.270;8.696;2023-06-26T08:23:24;25.70;90.30
8095;DHT22;4090;49.270;8.696;2023-06-26T08:26:06;25.80;90.20
8095;DHT22;4090;49.270;8.696;2023-06-26T08:28:48;25.80;90.20
8095;DHT22;4090;49.270;8.696;2023-06-26T08:31:31;25.90;90.40
8095;DHT22;4090;49.270;8.696;2023-06-26T08:34:14;26.00;90.40
8095;DHT22;4090;49.270;8.696;2023-06-26T08:36:56;26.00;88.70
8095;DHT22;4090;49.270;8.696;2023-06-26T08:39:38;26.10;89.20
8095;DHT22;4090;49.270;8.696;2023-06-26T08:42:20;26.10;89.40
8095;DHT22;4090;49.270;8.696;2023-06-26T08:45:02;26.10;89.80
8095;DHT22;4090;49.270;8.696;2023-06-26T08:47:48;26.20;90.00
8095;DHT22;4090;49.270;8.696;2023-06-26T08:50:34;26.20;91.00
8095;DHT22;4090;49.270;8.696;2023-06-26T08:53:33;26.30;90.00
8095;DHT22;4090;49.270;8.696;2023-06-26T08:56:20;26.30;90.00
8095;DHT22;4090;49.270;8.696;2023-06-26T08:59:04;26.40;90.50
8095;DHT22;4090;49.270;8.696;2023-06-26T09:01:46;26.40;90.10
8095;DHT22;4090;49.270;8.696;2023-06-26T09:04:30;26.50;90.20
8095;DHT22;4090;49.270;8.696;2023-06-26T09:07:12;26.50;90.60
8095;DHT22;4090;49.270;8.696;2023-06-26T09:09:54;26.60;90.70
8095;DHT22;4090;49.270;8.696;2023-06-26T09:12:37;26.60;91.30
8095;DHT22;4090;49.270;8.696;2023-06-26T09:15:20;26.70;90.90
8095;DHT22;4090;49.270;8.696;2023-06-26T09:18:04;26.70;90.90
8095;DHT22;4090;49.270;8.696;2023-06-26T09:20:48;26.80;90.80
8095;DHT22;4090;49.270;8.696;2023-06-26T09:23:30;26.80;90.40
8095;DHT22;4090;49.270;8.696;2023-06-26T09:26:13;26.80;90.50
8095;DHT22;4090;49.270;8.696;2023-06-26T09:28:57;26.80;90.70
8095;DHT22;4090;49.270;8.696;2023-06-26T09:31:39;26.80;90.60
8095;DHT22;4090;49.270;8.696;2023-06-26T09:34:21;27.00;90.40
8095;DHT22;4090;49.270;8.696;2023-06-26T09:37:05;26.90;90.50
8095;DHT22;4090;49.270;8.696;2023-06-26T09:39:47;26.80;90.70
8095;DHT22;4090;49.270;8.696;2023-06-26T09:42:30;26.90;90.50
8095;DHT22;4090;49.270;8.696;2023-06-26T09:45:18;27.00;90.50
8095;DHT22;4090;49.270;8.696;2023-06-26T09:48:00;27.00;91.00
8095;DHT22;4090;49.270;8.696;2023-06-26T09:50:43;27.00;91.40
8095;DHT22;4090;49.270;8.696;2023-06-26T09:53:26;27.10;91.40
8095;DHT22;4090;49.270;8.696;2023-06-26T09:56:15;27.20;90.80
8095;DHT22;4090;49.270;8.696;2023-06-26T09:58:58;27.20;91.10
8095;DHT22;4090;49.270;8.696;2023-06-26T10:01:43;27.30;90.70
8095;DHT22;4090;49.270;8.696;2023-06-26T10:04:26;27.40;90.60
8095;DHT22;4090;49.270;8.696;2023-06-26T10:07:11;27.30;90.70
8095;DHT22;4090;49.270;8.696;2023-06-26T10:09:55;27.30;91.00
8095;DHT22;4090;49.270;8.696;2023-06-26T10:12:38;27.40;90.90
8095;DHT22;4090;49.270;8.696;2023-06-26T10:15:21;27.60;91.10
8095;DHT22;4090;49.270;8.696;2023-06-26T10:18:04;27.60;90.70
8095;DHT22;4090;49.270;8.696;2023-06-26T10:20:48;27.70;90.50
8095;DHT22;4090;49.270;8.696;2023-06-26T10:23:31;27.70;90.60
8095;DHT22;4090;49.270;8.696;2023-06-26T10:26:14;27.50;90.70
8095;DHT22;4090;49.270;8.696;2023-06-26T10:28:57;27.40;91.10
8095;DHT22;4090;49.270;8.696;2023-06-26T10:31:40;27.60;91.20
8095;DHT22;4090;49.270;8.696;2023-06-26T10:34:24;27.50;91.10
8095;DHT22;4090;49.270;8.696;2023-06-26T10:37:06;27.60;91.20
8095;DHT22;4090;49.270;8.696;2023-06-26T10:39:49;27.80;90.80
8095;DHT22;4090;49.270;8.696;2023-06-26T10:42:36;28.00;90.20
8095;DHT22;4090;49.270;8.696;2023-06-26T10:45:20;27.80;90.20
8095;DHT22;4090;49.270;8.696;2023-06-26T10:48:02;27.80;90.00
8095;DHT22;4090;49.270;8.696;2023-06-26T10:50:47;27.90;90.40
8095;DHT22;4090;49.270;8.696;2023-06-26T10:53:29;27.90;90.20
8095;DHT22;4090;49.270;8.696;2023-06-26T10:56:15;27.90;90.40
8095;DHT22;4090;49.270;8.696;2023-06-26T10:59:11;27.90;90.00
8095;DHT22;4090;49.270;8.696;2023-06-26T11:01:56;28.00;90.30
8095;DHT22;4090;49.270;8.696;2023-06-26T11:04:39;28.00;90.00
8095;DHT22;4090;49.270;8.696;2023-06-26T11:07:22;28.10;90.00
8095;DHT22;4090;49.270;8.696;2023-06-26T11:10:08;28.20;90.40
8095;DHT22;4090;49.270;8.696;2023-06-26T11:12:53;28.40;90.10
8095;DHT22;4090;49.270;8.696;2023-06-26T11:15:37;28.20;89.30
8095;DHT22;4090;49.270;8.696;2023-06-26T11:18:20;28.20;90.00
8095;DHT22;4090;49.270;8.696;2023-06-26T11:21:06;28.10;89.10
8095;DHT22;4090;49.270;8.696;2023-06-26T11:23:49;28.10;87.80
8095;DHT22;4090;49.270;8.696;2023-06-26T11:26:38;28.10;86.60
8095;DHT22;4090;49.270;8.696;2023-06-26T11:29:19;28.10;87.60
8095;DHT22;4090;49.270;8.696;2023-06-26T11:32:05;28.10;87.50
8095;DHT22;4090;49.270;8.696;2023-06-26T11:34:48;28.10;86.70
8095;DHT22;4090;49.270;8.696;2023-06-26T11:37:31;28.20;87.80
8095;DHT22;4090;49.270;8.696;2023-06-26T11:40:17;28.20;88.20
8095;DHT22;4090;49.270;8.696;2023-06-26T11:43:00;28.30;87.60
8095;DHT22;4090;49.270;8.696;2023-06-26T11:45:42;28.30;87.60
8095;DHT22;4090;49.270;8.696;2023-06-26T11:48:26;28.40;87.60
8095;DHT22;4090;49.270;8.696;2023-06-26T11:51:08;28.40;88.00
8095;DHT22;4090;49.270;8.696;2023-06-26T11:53:50;28.60;87.70
8095;DHT22;4090;49.270;8.696;2023-06-26T11:56:33;28.50;88.20
8095;DHT22;4090;49.270;8.696;2023-06-26T11:59:15;28.60;87.20
8095;DHT22;4090;49.270;8.696;2023-06-26T12:01:57;28.70;88.80
8095;DHT22;4090;49.270;8.696;2023-06-26T12:04:41;28.70;86.30
8095;DHT22;4090;49.270;8.696;2023-06-26T12:07:23;28.70;85.90
8095;DHT22;4090;49.270;8.696;2023-06-26T12:10:06;28.70;85.20
8095;DHT22;4090;49.270;8.696;2023-06-26T12:12:48;28.80;83.40
8095;DHT22;4090;49.270;8.696;2023-06-26T12:15:30;28.80;81.90
8095;DHT22;4090;49.270;8.696;2023-06-26T12:18:12;28.80;82.80
8095;DHT22;4090;49.270;8.696;2023-06-26T12:20:55;28.80;83.40
8095;DHT22;4090;49.270;8.696;2023-06-26T12:23:39;29.00;84.40
8095;DHT22;4090;49.270;8.696;2023-06-26T12:26:21;29.00;82.70
8095;DHT22;4090;49.270;8.696;2023-06-26T12:29:05;29.00;79.80
8095;DHT22;4090;49.270;8.696;2023-06-26T12:31:50;29.00;81.00
8095;DHT22;4090;49.270;8.696;2023-06-26T12:34:34;29.00;81.60
8095;DHT22;4090;49.270;8.696;2023-06-26T12:37:17;29.10;78.90
8095;DHT22;4090;49.270;8.696;2023-06-26T12:39:59;29.10;76.80
8095;DHT22;4090;49.270;8.696;2023-06-26T12:42:41;29.20;75.20
8095;DHT22;4090;49.270;8.696;2023-06-26T12:45:23;29.10;75.00
8095;DHT22;4090;49.270;8.696;2023-06-26T12:48:11;29.10;75.60
8095;DHT22;4090;49.270;8.696;2023-06-26T12:50:53;29.30;73.50
8095;DHT22;4090;49.270;8.696;2023-06-26T12:53:37;29.40;72.50
8095;DHT22;4090;49.270;8.696;2023-06-26T12:56:20;29.40;72.20
8095;DHT22;4090;49.270;8.696;2023-06-26T12:59:02;29.40;71.20
8095;DHT22;4090;49.270;8.696;2023-06-26T13:01:43;29.60;72.30
8095;DHT22;4090;49.270;8.696;2023-06-26T13:04:26;29.50;70.00
8095;DHT22;4090;49.270;8.696;2023-06-26T13:07:08;29.50;70.00
8095;DHT22;4090;49.270;8.696;2023-06-26T13:09:51;29.60;72.00
8095;DHT22;4090;49.270;8.696;2023-06-26T13:12:33;29.60;72.60
8095;DHT22;4090;49.270;8.696;2023-06-26T13:15:15;29.60;71.00
8095;DHT22;4090;49.270;8.696;2023-06-26T13:17:57;29.70;70.60
8095;DHT22;4090;49.270;8.696;2023-06-26T13:20:38;29.70;70.00
8095;DHT22;4090;49.270;8.696;2023-06-26T13:23:20;29.70;70.10
8095;DHT22;4090;49.270;8.696;2023-06-26T13:26:04;29.70;69.70
8095;DHT22;4090;49.270;8.696;2023-06-26T13:28:47;29.70;69.40
8095;DHT22;4090;49.270;8.696;2023-06-26T13:31:29;29.70;67.00
8095;DHT22;4090;49.270;8.696;2023-06-26T13:34:20;29.80;67.80
8095;DHT22;4090;49.270;8.696;2023-06-26T13:37:03;30.00;67.80
8095;DHT22;4090;49.270;8.696;2023-06-26T13:39:45;29.90;67.10
8095;DHT22;4090;49.270;8.696;2023-06-26T13:42:31;29.90;66.20
8095;DHT22;4090;49.270;8.696;2023-06-26T13:45:13;29.90;64.70
8095;DHT22;4090;49.270;8.696;2023-06-26T13:47:55;29.90;64.50
8095;DHT22;4090;49.270;8.696;2023-06-26T13:50:37;29.90;65.00
8095;DHT22;4090;49.270;8.696;2023-06-26T13:53:19;29.90;63.90
8095;DHT22;4090;49.270;8.696;2023-06-26T13:56:01;29.90;67.10
8095;DHT22;4090;49.270;8.696;2023-06-26T13:58:44;30.00;67.50
8095;DHT22;4090;49.270;8.696;2023-06-26T14:01:26;30.00;67.50
8095;DHT22;4090;49.270;8.696;2023-06-26T14:04:08;30.00;67.00
8095;DHT22;4090;49.270;8.696;2023-06-26T14:06:50;30.10;67.70
8095;DHT22;4090;49.270;8.696;2023-06-26T14:09:32;30.00;67.20
8095;DHT22;4090;49.270;8.696;2023-06-26T14:12:13;30.00;69.30
8095;DHT22;4090;49.270;8.696;2023-06-26T14:14:57;29.90;66.30
8095;DHT22;4090;49.270;8.696;2023-06-26T14:17:39;30.00;65.60
8095;DHT22;4090;49.270;8.696;2023-06-26T14:20:22;30.00;68.60
8095;DHT22;4090;49.270;8.696;2023-06-26T14:23:05;30.10;66.10
8095;DHT22;4090;49.270;8.696;2023-06-26T14:25:47;30.10;65.90
8095;DHT22;4090;49.270;8.696;2023-06-26T14:28:29;30.10;65.90
8095;DHT22;4090;49.270;8.696;2023-06-26T14:31:12;30.10;65.90
8095;DHT22;4090;49.270;8.696;2023-06-26T14:33:54;30.00;65.30
8095;DHT22;4090;49.270;8.696;2023-06-26T14:36:36;30.00;64.10
8095;DHT22;4090;49.270;8.696;2023-06-26T14:39:18;30.20;62.70
8095;DHT22;4090;49.270;8.696;2023-06-26T14:42:00;30.20;60.20
8095;DHT22;4090;49.270;8.696;2023-06-26T14:44:42;30.10;60.00
8095;DHT22;4090;49.270;8.696;2023-06-26T14:47:25;30.20;59.40
8095;DHT22;4090;49.270;8.696;2023-06-26T14:50:08;30.20;59.20
8095;DHT22;4090;49.270;8.696;2023-06-26T14:52:50;30.20;58.00
8095;DHT22;4090;49.270;8.696;2023-06-26T14:55:32;30.20;58.10
8095;DHT22;4090;49.270;8.696;2023-06-26T14:58:14;30.20;57.50
8095;DHT22;4090;49.270;8.696;2023-06-26T15:00:55;30.20;56.60
8095;DHT22;4090;49.270;8.696;2023-06-26T15:03:39;30.20;55.70
8095;DHT22;4090;49.270;8.696;2023-06-26T15:06:21;30.20;56.00
8095;DHT22;4090;49.270;8.696;2023-06-26T15:09:03;30.20;56.50
8095;DHT22;4090;49.270;8.696;2023-06-26T15:11:46;30.10;54.80
8095;DHT22;4090;49.270;8.696;2023-06-26T15:14:28;30.30;55.80
8095;DHT22;4090;49.270;8.696;2023-06-26T15:17:09;30.20;53.70
8095;DHT22;4090;49.270;8.696;2023-06-26T15:19:53;30.10;52.90
8095;DHT22;4090;49.270;8.696;2023-06-26T15:22:34;30.20;52.60
8095;DHT22;4090;49.270;8.696;2023-06-26T15:25:16;30.20;51.90
8095;DHT22;4090;49.270;8.696;2023-06-26T15:27:58;30.20;51.80
8095;DHT22;4090;49.270;8.696;2023-06-26T15:30:40;30.20;52.40
8095;DHT22;4090;49.270;8.696;2023-06-26T15:33:22;30.30;51.20
8095;DHT22;4090;49.270;8.696;2023-06-26T15:36:06;30.20;50.00
8095;DHT22;4090;49.270;8.696;2023-06-26T15:38:48;30.20;50.20
8095;DHT22;4090;49.270;8.696;2023-06-26T15:41:30;30.20;52.20
8095;DHT22;4090;49.270;8.696;2023-06-26T15:44:12;30.10;49.60
8095;DHT22;4090;49.270;8.696;2023-06-26T15:46:53;30.00;49.80
8095;DHT22;4090;49.270;8.696;2023-06-26T15:49:35;30.00;51.10
8095;DHT22;4090;49.270;8.696;2023-06-26T15:52:19;30.20;51.00
8095;DHT22;4090;49.270;8.696;2023-06-26T15:55:00;30.10;51.10
8095;DHT22;4090;49.270;8.696;2023-06-26T15:57:42;29.90;50.90
8095;DHT22;4090;49.270;8.696;2023-06-26T16:00:24;30.00;51.90
8095;DHT22;4090;49.270;8.696;2023-06-26T16:03:06;29.90;51.70
8095;DHT22;4090;49.270;8.696;2023-06-26T16:05:49;29.90;51.10
8095;DHT22;4090;49.270;8.696;2023-06-26T16:08:32;29.90;52.10
8095;DHT22;4090;49.270;8.696;2023-06-26T16:11:14;29.80;51.00
8095;DHT22;4090;49.270;8.696;2023-06-26T16:13:56;29.80;51.30
8095;DHT22;4090;49.270;8.696;2023-06-26T16:16:39;29.80;51.20
8095;DHT22;4090;49.270;8.696;2023-06-26T16:19:20;29.90;51.60
8095;DHT22;4090;49.270;8.696;2023-06-26T16:22:03;29.80;51.50
8095;DHT22;4090;49.270;8.696;2023-06-26T16:24:46;29.80;50.70
8095;DHT22;4090;49.270;8.696;2023-06-26T16:27:28;29.80;51.50
8095;DHT22;4090;49.270;8.696;2023-06-26T16:30:11;29.70;51.40
8095;DHT22;4090;49.270;8.696;2023-06-26T16:32:53;29.90;52.40
8095;DHT22;4090;49.270;8.696;2023-06-26T16:35:35;29.80;52.50
8095;DHT22;4090;49.270;8.696;2023-06-26T16:38:17;29.70;52.10
8095;DHT22;4090;49.270;8.696;2023-06-26T16:41:00;29.80;52.30
8095;DHT22;4090;49.270;8.696;2023-06-26T16:43:42;29.70;52.00
8095;DHT22;4090;49.270;8.696;2023-06-26T16:46:24;29.60;52.60
8095;DHT22;4090;49.270;8.696;2023-06-26T16:49:06;29.60;51.70
8095;DHT22;4090;49.270;8.696;2023-06-26T16:51:48;29.80;52.60
8095;DHT22;4090;49.270;8.696;2023-06-26T16:54:30;29.70;51.60
8095;DHT22;4090;49.270;8.696;2023-06-26T16:57:14;29.70;51.00
8095;DHT22;4090;49.270;8.696;2023-06-26T16:59:56;29.80;51.60
8095;DHT22;4090;49.270;8.696;2023-06-26T17:02:38;29.80;50.90
8095;DHT22;4090;49.270;8.696;2023-06-26T17:05:20;29.60;50.10
8095;DHT22;4090;49.270;8.696;2023-06-26T17:08:02;29.60;50.10
8095;DHT22;4090;49.270;8.696;2023-06-26T17:10:44;29.70;50.60
8095;DHT22;4090;49.270;8.696;2023-06-26T17:13:27;29.60;50.00
8095;DHT22;4090;49.270;8.696;2023-06-26T17:16:09;29.50;50.20
8095;DHT22;4090;49.270;8.696;2023-06-26T17:18:51;29.50;50.30
8095;DHT22;4090;49.270;8.696;2023-06-26T17:21:35;29.50;50.70
8095;DHT22;4090;49.270;8.696;2023-06-26T17:24:17;29.50;50.50
8095;DHT22;4090;49.270;8.696;2023-06-26T17:27:08;29.40;50.00
8095;DHT22;4090;49.270;8.696;2023-06-26T17:29:52;29.40;50.30
8095;DHT22;4090;49.270;8.696;2023-06-26T17:32:34;29.30;50.70
8095;DHT22;4090;49.270;8.696;2023-06-26T17:35:15;29.30;51.00
8095;DHT22;4090;49.270;8.696;2023-06-26T17:37:57;29.20;50.70
8095;DHT22;4090;49.270;8.696;2023-06-26T17:40:40;29.20;51.30
8095;DHT22;4090;49.270;8.696;2023-06-26T17:43:22;29.30;52.20